Inmocean — ZCXX2 — position and weather

sailwx.info

Track history (hours):
 
Tides and Currents Weather Stations Pressure Air Temp Water Temp Dewpoint Dewpoint Depression Visibility Wind Speed Wind Dir Waves Ship Positions

Inmocean

Last reported at 2014-Sep-29 16:23 UTC. Time now 2014-Sep-30 21:54 UTC.
Position N 39°29' E 002°28'.

Type: Sailing vessel. MMSI: 319120000.

Date/timePositionNaut miles runAvg speedWind from/ knotsBaromVisibWave heightAir tempDewpointWater temp
2014-Sep-29 16:23N 39°29' E 002°28'10 9.2
2014-Sep-29 15:15N 39°36' E 002°17'810.3
2014-Sep-29 14:31N 39°43' E 002°21'10 9.9
2014-Sep-29 13:33N 39°51' E 002°27'1010.0
2014-Sep-29 12:33N 40°00' E 002°33'10 9.8
2014-Sep-29 11:33N 40°08' E 002°40'1010.3
2014-Sep-29 10:33N 40°15' E 002°51'1110.4
2014-Sep-29 09:32N 40°22' E 003°01'1010.6
2014-Sep-29 08:33N 40°28' E 003°12'1010.1
2014-Sep-29 07:33N 40°37' E 003°19'1010.0
2014-Sep-29 06:32N 40°45' E 003°27'82 9.0
2014-Sep-28 21:27N 41°39' E 004°48'8110.0
2014-Sep-28 13:23N 42°37' E 006°04'7 8.8
2014-Sep-28 12:33N 42°43' E 006°11'9 8.7
2014-Sep-28 11:29N 42°50' E 006°19'4510.3
2014-Sep-28 07:05N 43°25' E 006°58'610.4
2014-Sep-28 06:32N 43°29' E 007°04'1010.7
2014-Sep-28 05:33N 43°35' E 007°15'  
Track history (hours):
 
Tides and Currents Weather Stations Pressure Air Temp Water Temp Dewpoint Dewpoint Depression Visibility Wind Speed Wind Dir Waves Ship Positions

Inmocean

Last reported at 2014-Sep-29 16:23 UTC. Time now 2014-Sep-30 21:54 UTC.
Position N 39°29' E 002°28'.

Type: Sailing vessel. MMSI: 319120000.

Date/timePositionNaut miles runAvg speedWind from/ knotsBaromVisibWave heightAir tempDewpointWater temp
2014-Sep-29 16:23N 39°29' E 002°28'10 9.2
2014-Sep-29 15:15N 39°36' E 002°17'810.3
2014-Sep-29 14:31N 39°43' E 002°21'10 9.9
2014-Sep-29 13:33N 39°51' E 002°27'1010.0
2014-Sep-29 12:33N 40°00' E 002°33'10 9.8
2014-Sep-29 11:33N 40°08' E 002°40'1010.3
2014-Sep-29 10:33N 40°15' E 002°51'1110.4
2014-Sep-29 09:32N 40°22' E 003°01'1010.6
2014-Sep-29 08:33N 40°28' E 003°12'1010.1
2014-Sep-29 07:33N 40°37' E 003°19'1010.0
2014-Sep-29 06:32N 40°45' E 003°27'82 9.0
2014-Sep-28 21:27N 41°39' E 004°48'8110.0
2014-Sep-28 13:23N 42°37' E 006°04'7 8.8
2014-Sep-28 12:33N 42°43' E 006°11'9 8.7
2014-Sep-28 11:29N 42°50' E 006°19'4510.3
2014-Sep-28 07:05N 43°25' E 006°58'610.4
2014-Sep-28 06:32N 43°29' E 007°04'1010.7
2014-Sep-28 05:33N 43°35' E 007°15'  

Dump ship's entire track history